sensor_id;sensor_type;location;lat;lon;timestamp;P1;durP1;ratioP1;P2;durP2;ratioP2
36551;SDS011;22559;54.176;12.102;2022-10-31T00:00:19;27.10;;;23.40;;
36551;SDS011;22559;54.176;12.102;2022-10-31T00:02:45;28.97;;;23.50;;
36551;SDS011;22559;54.176;12.102;2022-10-31T00:05:10;37.90;;;24.37;;
36551;SDS011;22559;54.176;12.102;2022-10-31T00:07:36;30.83;;;22.23;;
36551;SDS011;22559;54.176;12.102;2022-10-31T00:10:02;28.10;;;22.50;;
36551;SDS011;22559;54.176;12.102;2022-10-31T00:12:27;28.70;;;23.33;;
36551;SDS011;22559;54.176;12.102;2022-10-31T00:14:53;29.73;;;23.83;;
36551;SDS011;22559;54.176;12.102;2022-10-31T00:17:19;27.57;;;23.90;;
36551;SDS011;22559;54.176;12.102;2022-10-31T00:19:44;53.57;;;26.23;;
36551;SDS011;22559;54.176;12.102;2022-10-31T00:22:10;27.43;;;23.80;;
36551;SDS011;22559;54.176;12.102;2022-10-31T00:24:35;28.70;;;25.27;;
36551;SDS011;22559;54.176;12.102;2022-10-31T00:27:01;37.13;;;26.80;;
36551;SDS011;22559;54.176;12.102;2022-10-31T00:29:26;42.40;;;30.90;;
36551;SDS011;22559;54.176;12.102;2022-10-31T00:31:52;38.60;;;29.70;;
36551;SDS011;22559;54.176;12.102;2022-10-31T00:34:18;40.70;;;29.93;;
36551;SDS011;22559;54.176;12.102;2022-10-31T00:36:43;37.30;;;29.60;;
36551;SDS011;22559;54.176;12.102;2022-10-31T00:39:09;34.80;;;27.53;;
36551;SDS011;22559;54.176;12.102;2022-10-31T00:41:34;30.27;;;26.40;;
36551;SDS011;22559;54.176;12.102;2022-10-31T00:44:00;31.80;;;26.40;;
36551;SDS011;22559;54.176;12.102;2022-10-31T00:46:26;36.73;;;28.77;;
36551;SDS011;22559;54.176;12.102;2022-10-31T00:48:51;36.53;;;29.43;;
36551;SDS011;22559;54.176;12.102;2022-10-31T00:51:17;36.53;;;29.13;;
36551;SDS011;22559;54.176;12.102;2022-10-31T00:53:43;39.40;;;29.80;;
36551;SDS011;22559;54.176;12.102;2022-10-31T00:56:08;36.17;;;29.17;;
36551;SDS011;22559;54.176;12.102;2022-10-31T00:58:34;31.90;;;26.97;;
36551;SDS011;22559;54.176;12.102;2022-10-31T01:01:00;34.77;;;27.47;;
36551;SDS011;22559;54.176;12.102;2022-10-31T01:03:27;32.23;;;28.33;;
36551;SDS011;22559;54.176;12.102;2022-10-31T01:05:55;37.10;;;29.67;;
36551;SDS011;22559;54.176;12.102;2022-10-31T01:08:22;35.47;;;28.67;;
36551;SDS011;22559;54.176;12.102;2022-10-31T01:10:57;34.83;;;28.13;;
36551;SDS011;22559;54.176;12.102;2022-10-31T01:13:24;37.67;;;27.20;;
36551;SDS011;22559;54.176;12.102;2022-10-31T01:15:53;34.97;;;27.60;;
36551;SDS011;22559;54.176;12.102;2022-10-31T01:18:20;36.87;;;27.73;;
36551;SDS011;22559;54.176;12.102;2022-10-31T01:20:46;35.93;;;26.07;;
36551;SDS011;22559;54.176;12.102;2022-10-31T01:23:12;33.87;;;25.97;;
36551;SDS011;22559;54.176;12.102;2022-10-31T01:25:37;32.17;;;24.77;;
36551;SDS011;22559;54.176;12.102;2022-10-31T01:28:03;31.93;;;25.97;;
36551;SDS011;22559;54.176;12.102;2022-10-31T01:30:28;35.30;;;25.47;;
36551;SDS011;22559;54.176;12.102;2022-10-31T01:32:54;32.87;;;26.80;;
36551;SDS011;22559;54.176;12.102;2022-10-31T01:35:19;34.73;;;25.20;;
36551;SDS011;22559;54.176;12.102;2022-10-31T01:37:45;32.47;;;26.00;;
36551;SDS011;22559;54.176;12.102;2022-10-31T01:40:11;31.97;;;25.00;;
36551;SDS011;22559;54.176;12.102;2022-10-31T01:42:36;33.83;;;26.50;;
36551;SDS011;22559;54.176;12.102;2022-10-31T01:45:02;33.57;;;26.97;;
36551;SDS011;22559;54.176;12.102;2022-10-31T01:47:34;36.33;;;25.83;;
36551;SDS011;22559;54.176;12.102;2022-10-31T01:50:10;34.73;;;27.13;;
36551;SDS011;22559;54.176;12.102;2022-10-31T01:52:40;35.47;;;26.67;;
36551;SDS011;22559;54.176;12.102;2022-10-31T01:55:13;28.83;;;23.83;;
36551;SDS011;22559;54.176;12.102;2022-10-31T01:57:48;32.37;;;24.83;;
36551;SDS011;22559;54.176;12.102;2022-10-31T02:00:19;36.13;;;25.13;;
36551;SDS011;22559;54.176;12.102;2022-10-31T02:02:46;31.57;;;25.07;;
36551;SDS011;22559;54.176;12.102;2022-10-31T02:05:14;32.63;;;24.53;;
36551;SDS011;22559;54.176;12.102;2022-10-31T02:07:45;32.87;;;24.37;;
36551;SDS011;22559;54.176;12.102;2022-10-31T02:10:18;30.70;;;24.07;;
36551;SDS011;22559;54.176;12.102;2022-10-31T02:12:46;31.37;;;23.90;;
36551;SDS011;22559;54.176;12.102;2022-10-31T02:15:13;30.50;;;23.47;;
36551;SDS011;22559;54.176;12.102;2022-10-31T02:17:38;31.80;;;23.47;;
36551;SDS011;22559;54.176;12.102;2022-10-31T02:20:09;27.93;;;22.90;;
36551;SDS011;22559;54.176;12.102;2022-10-31T02:30:53;27.17;;;20.73;;
36551;SDS011;22559;54.176;12.102;2022-10-31T02:33:50;25.53;;;20.33;;
36551;SDS011;22559;54.176;12.102;2022-10-31T02:39:17;26.40;;;20.63;;
36551;SDS011;22559;54.176;12.102;2022-10-31T02:41:50;26.70;;;20.40;;
36551;SDS011;22559;54.176;12.102;2022-10-31T02:44:37;21.97;;;18.77;;
36551;SDS011;22559;54.176;12.102;2022-10-31T02:47:22;23.93;;;19.53;;
36551;SDS011;22559;54.176;12.102;2022-10-31T02:49:56;30.57;;;20.30;;
36551;SDS011;22559;54.176;12.102;2022-10-31T02:52:30;23.70;;;19.13;;
36551;SDS011;22559;54.176;12.102;2022-10-31T02:54:57;23.63;;;19.30;;
36551;SDS011;22559;54.176;12.102;2022-10-31T02:57:24;21.90;;;18.97;;
36551;SDS011;22559;54.176;12.102;2022-10-31T02:59:54;26.33;;;20.30;;
36551;SDS011;22559;54.176;12.102;2022-10-31T03:02:33;21.73;;;18.13;;
36551;SDS011;22559;54.176;12.102;2022-10-31T03:05:11;22.53;;;18.97;;
36551;SDS011;22559;54.176;12.102;2022-10-31T03:12:48;22.97;;;19.13;;
36551;SDS011;22559;54.176;12.102;2022-10-31T03:15:40;23.40;;;19.00;;
36551;SDS011;22559;54.176;12.102;2022-10-31T03:18:11;20.53;;;17.33;;
36551;SDS011;22559;54.176;12.102;2022-10-31T03:20:47;24.13;;;19.10;;
36551;SDS011;22559;54.176;12.102;2022-10-31T03:23:19;24.33;;;20.03;;
36551;SDS011;22559;54.176;12.102;2022-10-31T03:25:47;21.07;;;17.97;;
36551;SDS011;22559;54.176;12.102;2022-10-31T03:28:15;21.90;;;18.07;;
36551;SDS011;22559;54.176;12.102;2022-10-31T03:30:44;22.60;;;18.40;;
36551;SDS011;22559;54.176;12.102;2022-10-31T03:33:13;20.83;;;17.37;;
36551;SDS011;22559;54.176;12.102;2022-10-31T03:35:42;22.43;;;18.00;;
36551;SDS011;22559;54.176;12.102;2022-10-31T03:38:12;22.13;;;18.20;;
36551;SDS011;22559;54.176;12.102;2022-10-31T03:40:40;22.80;;;18.90;;
36551;SDS011;22559;54.176;12.102;2022-10-31T03:43:10;21.70;;;18.90;;
36551;SDS011;22559;54.176;12.102;2022-10-31T03:45:41;21.90;;;17.87;;
36551;SDS011;22559;54.176;12.102;2022-10-31T03:48:10;22.47;;;17.37;;
36551;SDS011;22559;54.176;12.102;2022-10-31T03:53:26;21.47;;;17.50;;
36551;SDS011;22559;54.176;12.102;2022-10-31T03:56:09;19.27;;;16.80;;
36551;SDS011;22559;54.176;12.102;2022-10-31T03:58:55;18.80;;;16.80;;
36551;SDS011;22559;54.176;12.102;2022-10-31T04:01:26;19.30;;;17.17;;
36551;SDS011;22559;54.176;12.102;2022-10-31T04:03:55;19.73;;;17.17;;
36551;SDS011;22559;54.176;12.102;2022-10-31T04:06:23;19.67;;;16.87;;
36551;SDS011;22559;54.176;12.102;2022-10-31T04:08:57;24.50;;;20.43;;
36551;SDS011;22559;54.176;12.102;2022-10-31T04:11:28;22.50;;;18.47;;
36551;SDS011;22559;54.176;12.102;2022-10-31T04:13:57;20.97;;;17.30;;
36551;SDS011;22559;54.176;12.102;2022-10-31T04:16:24;19.47;;;17.37;;
36551;SDS011;22559;54.176;12.102;2022-10-31T04:18:50;21.70;;;18.20;;
36551;SDS011;22559;54.176;12.102;2022-10-31T04:21:16;19.00;;;16.90;;
36551;SDS011;22559;54.176;12.102;2022-10-31T04:23:41;20.43;;;18.10;;
36551;SDS011;22559;54.176;12.102;2022-10-31T04:26:08;21.03;;;18.13;;
36551;SDS011;22559;54.176;12.102;2022-10-31T04:28:36;24.43;;;17.90;;
36551;SDS011;22559;54.176;12.102;2022-10-31T04:31:02;20.30;;;16.97;;
36551;SDS011;22559;54.176;12.102;2022-10-31T04:33:27;20.20;;;17.27;;
36551;SDS011;22559;54.176;12.102;2022-10-31T04:35:53;20.10;;;16.80;;
36551;SDS011;22559;54.176;12.102;2022-10-31T04:38:19;19.40;;;16.67;;
36551;SDS011;22559;54.176;12.102;2022-10-31T04:40:45;19.63;;;16.60;;
36551;SDS011;22559;54.176;12.102;2022-10-31T04:43:10;18.70;;;16.70;;
36551;SDS011;22559;54.176;12.102;2022-10-31T04:45:36;18.00;;;16.10;;
36551;SDS011;22559;54.176;12.102;2022-10-31T04:48:02;22.13;;;19.37;;
36551;SDS011;22559;54.176;12.102;2022-10-31T04:50:28;21.70;;;18.57;;
36551;SDS011;22559;54.176;12.102;2022-10-31T04:52:54;24.17;;;19.53;;
36551;SDS011;22559;54.176;12.102;2022-10-31T04:55:19;23.60;;;19.03;;
36551;SDS011;22559;54.176;12.102;2022-10-31T04:57:46;26.67;;;20.33;;
36551;SDS011;22559;54.176;12.102;2022-10-31T05:00:14;23.43;;;19.43;;
36551;SDS011;22559;54.176;12.102;2022-10-31T05:02:45;25.67;;;18.80;;
36551;SDS011;22559;54.176;12.102;2022-10-31T05:05:19;26.83;;;19.53;;
36551;SDS011;22559;54.176;12.102;2022-10-31T05:07:47;25.63;;;19.67;;
36551;SDS011;22559;54.176;12.102;2022-10-31T05:10:15;25.40;;;18.97;;
36551;SDS011;22559;54.176;12.102;2022-10-31T05:12:45;22.00;;;18.20;;
36551;SDS011;22559;54.176;12.102;2022-10-31T05:15:16;30.10;;;20.13;;
36551;SDS011;22559;54.176;12.102;2022-10-31T05:17:42;35.27;;;22.20;;
36551;SDS011;22559;54.176;12.102;2022-10-31T05:20:09;36.97;;;23.53;;
36551;SDS011;22559;54.176;12.102;2022-10-31T05:22:35;30.57;;;20.60;;
36551;SDS011;22559;54.176;12.102;2022-10-31T05:25:01;35.83;;;22.97;;
36551;SDS011;22559;54.176;12.102;2022-10-31T05:27:27;34.23;;;22.13;;
36551;SDS011;22559;54.176;12.102;2022-10-31T05:29:53;36.87;;;22.60;;
36551;SDS011;22559;54.176;12.102;2022-10-31T05:32:18;38.53;;;22.90;;
36551;SDS011;22559;54.176;12.102;2022-10-31T05:34:44;34.80;;;23.60;;
36551;SDS011;22559;54.176;12.102;2022-10-31T05:37:09;36.53;;;24.33;;
36551;SDS011;22559;54.176;12.102;2022-10-31T05:39:35;37.23;;;23.23;;
36551;SDS011;22559;54.176;12.102;2022-10-31T05:42:00;36.13;;;22.33;;
36551;SDS011;22559;54.176;12.102;2022-10-31T05:44:26;40.00;;;22.50;;
36551;SDS011;22559;54.176;12.102;2022-10-31T05:46:51;30.03;;;20.77;;
36551;SDS011;22559;54.176;12.102;2022-10-31T05:49:17;35.87;;;23.10;;
36551;SDS011;22559;54.176;12.102;2022-10-31T05:51:43;36.47;;;22.63;;
36551;SDS011;22559;54.176;12.102;2022-10-31T05:54:08;37.77;;;22.50;;
36551;SDS011;22559;54.176;12.102;2022-10-31T05:56:34;39.10;;;23.77;;
36551;SDS011;22559;54.176;12.102;2022-10-31T05:58:59;40.50;;;24.73;;
36551;SDS011;22559;54.176;12.102;2022-10-31T06:01:25;38.33;;;22.63;;
36551;SDS011;22559;54.176;12.102;2022-10-31T06:03:50;45.47;;;24.77;;
36551;SDS011;22559;54.176;12.102;2022-10-31T06:06:16;37.90;;;23.47;;
36551;SDS011;22559;54.176;12.102;2022-10-31T06:08:42;38.07;;;24.83;;
36551;SDS011;22559;54.176;12.102;2022-10-31T06:11:07;47.63;;;27.40;;
36551;SDS011;22559;54.176;12.102;2022-10-31T06:13:33;47.20;;;27.33;;
36551;SDS011;22559;54.176;12.102;2022-10-31T06:16:01;44.63;;;26.93;;
36551;SDS011;22559;54.176;12.102;2022-10-31T06:18:27;48.50;;;28.17;;
36551;SDS011;22559;54.176;12.102;2022-10-31T06:20:53;51.20;;;28.23;;
36551;SDS011;22559;54.176;12.102;2022-10-31T06:23:18;48.30;;;28.07;;
36551;SDS011;22559;54.176;12.102;2022-10-31T06:25:47;49.73;;;29.30;;
36551;SDS011;22559;54.176;12.102;2022-10-31T06:28:14;50.13;;;28.77;;
36551;SDS011;22559;54.176;12.102;2022-10-31T06:30:39;53.27;;;28.10;;
36551;SDS011;22559;54.176;12.102;2022-10-31T06:33:05;55.73;;;29.87;;
36551;SDS011;22559;54.176;12.102;2022-10-31T06:35:31;55.93;;;30.13;;
36551;SDS011;22559;54.176;12.102;2022-10-31T06:37:56;56.33;;;31.60;;
36551;SDS011;22559;54.176;12.102;2022-10-31T06:40:22;56.33;;;29.60;;
36551;SDS011;22559;54.176;12.102;2022-10-31T06:42:55;55.80;;;31.97;;
36551;SDS011;22559;54.176;12.102;2022-10-31T06:45:22;57.93;;;30.57;;
36551;SDS011;22559;54.176;12.102;2022-10-31T06:47:51;65.20;;;33.87;;
36551;SDS011;22559;54.176;12.102;2022-10-31T06:50:18;61.60;;;32.03;;
36551;SDS011;22559;54.176;12.102;2022-10-31T06:52:49;60.47;;;32.77;;
36551;SDS011;22559;54.176;12.102;2022-10-31T06:55:19;62.60;;;31.80;;
36551;SDS011;22559;54.176;12.102;2022-10-31T07:00:16;67.20;;;33.30;;
36551;SDS011;22559;54.176;12.102;2022-10-31T07:02:42;61.10;;;33.30;;
36551;SDS011;22559;54.176;12.102;2022-10-31T07:05:07;64.33;;;33.00;;
36551;SDS011;22559;54.176;12.102;2022-10-31T07:07:33;74.03;;;35.13;;
36551;SDS011;22559;54.176;12.102;2022-10-31T07:09:58;68.33;;;34.17;;
36551;SDS011;22559;54.176;12.102;2022-10-31T07:12:24;64.30;;;34.77;;
36551;SDS011;22559;54.176;12.102;2022-10-31T07:14:49;64.83;;;33.67;;
36551;SDS011;22559;54.176;12.102;2022-10-31T07:17:15;71.70;;;35.17;;
36551;SDS011;22559;54.176;12.102;2022-10-31T07:19:40;84.73;;;42.57;;
36551;SDS011;22559;54.176;12.102;2022-10-31T07:22:06;76.63;;;39.60;;
36551;SDS011;22559;54.176;12.102;2022-10-31T07:24:31;78.73;;;37.37;;
36551;SDS011;22559;54.176;12.102;2022-10-31T07:26:57;95.13;;;38.43;;
36551;SDS011;22559;54.176;12.102;2022-10-31T07:29:22;104.83;;;41.57;;
36551;SDS011;22559;54.176;12.102;2022-10-31T07:31:48;130.03;;;45.60;;
36551;SDS011;22559;54.176;12.102;2022-10-31T07:34:14;112.97;;;44.63;;
36551;SDS011;22559;54.176;12.102;2022-10-31T07:36:39;155.40;;;48.97;;
36551;SDS011;22559;54.176;12.102;2022-10-31T07:39:05;203.67;;;52.63;;
36551;SDS011;22559;54.176;12.102;2022-10-31T07:41:30;167.53;;;52.70;;
36551;SDS011;22559;54.176;12.102;2022-10-31T07:43:56;159.27;;;53.43;;
36551;SDS011;22559;54.176;12.102;2022-10-31T07:46:21;156.90;;;53.60;;
36551;SDS011;22559;54.176;12.102;2022-10-31T07:48:47;250.93;;;59.80;;
36551;SDS011;22559;54.176;12.102;2022-10-31T07:51:13;162.13;;;54.00;;
36551;SDS011;22559;54.176;12.102;2022-10-31T07:53:38;201.43;;;58.07;;
36551;SDS011;22559;54.176;12.102;2022-10-31T07:56:04;161.43;;;56.53;;
36551;SDS011;22559;54.176;12.102;2022-10-31T07:58:30;183.20;;;56.23;;
36551;SDS011;22559;54.176;12.102;2022-10-31T08:00:57;175.87;;;56.17;;
36551;SDS011;22559;54.176;12.102;2022-10-31T08:03:23;270.23;;;65.00;;
36551;SDS011;22559;54.176;12.102;2022-10-31T08:05:48;164.40;;;53.60;;
36551;SDS011;22559;54.176;12.102;2022-10-31T08:08:14;217.90;;;59.23;;
36551;SDS011;22559;54.176;12.102;2022-10-31T08:10:40;149.53;;;53.50;;
36551;SDS011;22559;54.176;12.102;2022-10-31T08:13:07;153.77;;;54.97;;
36551;SDS011;22559;54.176;12.102;2022-10-31T08:15:34;175.17;;;58.43;;
36551;SDS011;22559;54.176;12.102;2022-10-31T08:18:03;179.73;;;60.07;;
36551;SDS011;22559;54.176;12.102;2022-10-31T08:20:29;213.73;;;61.77;;
36551;SDS011;22559;54.176;12.102;2022-10-31T08:22:58;211.37;;;60.83;;
36551;SDS011;22559;54.176;12.102;2022-10-31T08:25:26;183.43;;;56.47;;
36551;SDS011;22559;54.176;12.102;2022-10-31T08:27:53;208.97;;;59.03;;
36551;SDS011;22559;54.176;12.102;2022-10-31T08:30:20;216.07;;;60.20;;
36551;SDS011;22559;54.176;12.102;2022-10-31T08:32:47;210.47;;;58.23;;
36551;SDS011;22559;54.176;12.102;2022-10-31T08:35:21;211.57;;;58.83;;
36551;SDS011;22559;54.176;12.102;2022-10-31T08:37:51;182.83;;;55.63;;
36551;SDS011;22559;54.176;12.102;2022-10-31T08:40:18;183.80;;;56.00;;
36551;SDS011;22559;54.176;12.102;2022-10-31T08:42:44;164.23;;;53.93;;
36551;SDS011;22559;54.176;12.102;2022-10-31T08:45:09;170.77;;;55.00;;
36551;SDS011;22559;54.176;12.102;2022-10-31T08:47:35;147.47;;;51.37;;
36551;SDS011;22559;54.176;12.102;2022-10-31T08:50:00;167.27;;;53.60;;
36551;SDS011;22559;54.176;12.102;2022-10-31T08:52:26;182.17;;;55.67;;
36551;SDS011;22559;54.176;12.102;2022-10-31T08:54:52;173.77;;;52.37;;
36551;SDS011;22559;54.176;12.102;2022-10-31T08:57:17;146.80;;;50.70;;
36551;SDS011;22559;54.176;12.102;2022-10-31T08:59:43;157.37;;;51.20;;
36551;SDS011;22559;54.176;12.102;2022-10-31T09:02:08;158.27;;;50.87;;
36551;SDS011;22559;54.176;12.102;2022-10-31T09:04:34;154.27;;;50.43;;
36551;SDS011;22559;54.176;12.102;2022-10-31T09:06:59;140.60;;;48.07;;
36551;SDS011;22559;54.176;12.102;2022-10-31T09:09:25;134.43;;;49.17;;
36551;SDS011;22559;54.176;12.102;2022-10-31T09:11:51;123.23;;;43.40;;
36551;SDS011;22559;54.176;12.102;2022-10-31T09:14:16;136.70;;;46.20;;
36551;SDS011;22559;54.176;12.102;2022-10-31T09:16:42;125.80;;;45.03;;
36551;SDS011;22559;54.176;12.102;2022-10-31T09:19:07;123.07;;;44.33;;
36551;SDS011;22559;54.176;12.102;2022-10-31T09:21:33;127.60;;;43.87;;
36551;SDS011;22559;54.176;12.102;2022-10-31T09:23:58;113.07;;;41.83;;
36551;SDS011;22559;54.176;12.102;2022-10-31T09:26:24;96.27;;;40.07;;
36551;SDS011;22559;54.176;12.102;2022-10-31T09:28:50;119.93;;;40.43;;
36551;SDS011;22559;54.176;12.102;2022-10-31T09:31:15;101.03;;;39.47;;
36551;SDS011;22559;54.176;12.102;2022-10-31T09:33:41;104.43;;;39.83;;
36551;SDS011;22559;54.176;12.102;2022-10-31T09:36:07;98.53;;;37.07;;
36551;SDS011;22559;54.176;12.102;2022-10-31T09:38:32;100.03;;;37.97;;
36551;SDS011;22559;54.176;12.102;2022-10-31T09:41:04;107.80;;;38.20;;
36551;SDS011;22559;54.176;12.102;2022-10-31T09:46:25;90.43;;;35.23;;
36551;SDS011;22559;54.176;12.102;2022-10-31T09:56:36;89.60;;;34.23;;
36551;SDS011;22559;54.176;12.102;2022-10-31T09:59:04;83.83;;;31.30;;
36551;SDS011;22559;54.176;12.102;2022-10-31T10:06:43;86.27;;;27.53;;
36551;SDS011;22559;54.176;12.102;2022-10-31T10:09:11;86.17;;;28.23;;
36551;SDS011;22559;54.176;12.102;2022-10-31T10:11:44;82.40;;;28.57;;
36551;SDS011;22559;54.176;12.102;2022-10-31T10:17:03;79.10;;;24.87;;
36551;SDS011;22559;54.176;12.102;2022-10-31T10:19:53;81.90;;;26.73;;
36551;SDS011;22559;54.176;12.102;2022-10-31T10:27:49;81.43;;;24.40;;
36551;SDS011;22559;54.176;12.102;2022-10-31T10:30:46;75.57;;;23.60;;
36551;SDS011;22559;54.176;12.102;2022-10-31T10:33:23;74.20;;;24.47;;
36551;SDS011;22559;54.176;12.102;2022-10-31T10:35:53;75.33;;;23.97;;
36551;SDS011;22559;54.176;12.102;2022-10-31T10:38:29;84.80;;;24.43;;
36551;SDS011;22559;54.176;12.102;2022-10-31T10:41:05;80.17;;;25.10;;
36551;SDS011;22559;54.176;12.102;2022-10-31T10:43:38;77.80;;;23.93;;
36551;SDS011;22559;54.176;12.102;2022-10-31T10:51:54;91.30;;;25.43;;
36551;SDS011;22559;54.176;12.102;2022-10-31T10:59:52;108.60;;;23.90;;
36551;SDS011;22559;54.176;12.102;2022-10-31T11:02:25;68.93;;;21.43;;
36551;SDS011;22559;54.176;12.102;2022-10-31T11:04:53;80.57;;;23.23;;
36551;SDS011;22559;54.176;12.102;2022-10-31T11:07:20;71.63;;;22.40;;
36551;SDS011;22559;54.176;12.102;2022-10-31T11:09:46;64.93;;;22.60;;
36551;SDS011;22559;54.176;12.102;2022-10-31T11:14:56;94.40;;;23.13;;
36551;SDS011;22559;54.176;12.102;2022-10-31T11:17:32;119.57;;;25.67;;
36551;SDS011;22559;54.176;12.102;2022-10-31T11:22:36;53.00;;;20.33;;
36551;SDS011;22559;54.176;12.102;2022-10-31T11:25:11;82.33;;;23.17;;
36551;SDS011;22559;54.176;12.102;2022-10-31T11:28:04;68.20;;;20.87;;
36551;SDS011;22559;54.176;12.102;2022-10-31T11:30:35;73.13;;;20.50;;
36551;SDS011;22559;54.176;12.102;2022-10-31T11:35:46;70.83;;;18.77;;
36551;SDS011;22559;54.176;12.102;2022-10-31T11:38:17;62.80;;;19.00;;
36551;SDS011;22559;54.176;12.102;2022-10-31T11:40:58;137.37;;;22.63;;
36551;SDS011;22559;54.176;12.102;2022-10-31T11:43:34;66.67;;;16.57;;
36551;SDS011;22559;54.176;12.102;2022-10-31T11:46:07;48.87;;;15.03;;
36551;SDS011;22559;54.176;12.102;2022-10-31T11:48:40;59.47;;;15.93;;
36551;SDS011;22559;54.176;12.102;2022-10-31T11:51:35;50.30;;;13.80;;
36551;SDS011;22559;54.176;12.102;2022-10-31T11:54:02;40.07;;;13.20;;
36551;SDS011;22559;54.176;12.102;2022-10-31T11:56:39;55.53;;;16.23;;
36551;SDS011;22559;54.176;12.102;2022-10-31T11:59:20;75.70;;;16.53;;
36551;SDS011;22559;54.176;12.102;2022-10-31T12:01:53;41.53;;;15.33;;
36551;SDS011;22559;54.176;12.102;2022-10-31T12:04:23;58.90;;;17.03;;
36551;SDS011;22559;54.176;12.102;2022-10-31T12:07:00;47.60;;;16.60;;
36551;SDS011;22559;54.176;12.102;2022-10-31T12:09:29;74.40;;;17.00;;
36551;SDS011;22559;54.176;12.102;2022-10-31T12:12:13;37.33;;;14.13;;
36551;SDS011;22559;54.176;12.102;2022-10-31T12:15:08;34.87;;;14.40;;
36551;SDS011;22559;54.176;12.102;2022-10-31T12:17:58;37.77;;;14.20;;
36551;SDS011;22559;54.176;12.102;2022-10-31T12:28:41;36.50;;;14.23;;
36551;SDS011;22559;54.176;12.102;2022-10-31T12:37:05;40.00;;;14.93;;
36551;SDS011;22559;54.176;12.102;2022-10-31T12:39:49;38.43;;;16.30;;
36551;SDS011;22559;54.176;12.102;2022-10-31T12:42:44;38.00;;;16.37;;
36551;SDS011;22559;54.176;12.102;2022-10-31T13:02:01;43.07;;;14.43;;
36551;SDS011;22559;54.176;12.102;2022-10-31T13:04:55;41.90;;;14.67;;
36551;SDS011;22559;54.176;12.102;2022-10-31T13:10:21;39.30;;;14.13;;
36551;SDS011;22559;54.176;12.102;2022-10-31T13:12:53;32.13;;;13.47;;
36551;SDS011;22559;54.176;12.102;2022-10-31T13:15:24;27.00;;;12.83;;
36551;SDS011;22559;54.176;12.102;2022-10-31T13:17:56;23.53;;;12.30;;
36551;SDS011;22559;54.176;12.102;2022-10-31T13:22:52;24.97;;;11.40;;
36551;SDS011;22559;54.176;12.102;2022-10-31T13:25:28;35.10;;;19.23;;
36551;SDS011;22559;54.176;12.102;2022-10-31T13:28:05;21.77;;;12.10;;
36551;SDS011;22559;54.176;12.102;2022-10-31T13:30:38;23.67;;;12.43;;
36551;SDS011;22559;54.176;12.102;2022-10-31T13:33:09;22.53;;;11.97;;
36551;SDS011;22559;54.176;12.102;2022-10-31T13:38:38;19.63;;;11.70;;
36551;SDS011;22559;54.176;12.102;2022-10-31T13:41:31;24.03;;;11.50;;
36551;SDS011;22559;54.176;12.102;2022-10-31T13:44:22;17.90;;;9.97;;
36551;SDS011;22559;54.176;12.102;2022-10-31T13:46:53;22.13;;;11.70;;
36551;SDS011;22559;54.176;12.102;2022-10-31T13:54:40;26.10;;;11.80;;
36551;SDS011;22559;54.176;12.102;2022-10-31T13:57:22;23.17;;;11.23;;
36551;SDS011;22559;54.176;12.102;2022-10-31T13:59:59;18.17;;;10.63;;
36551;SDS011;22559;54.176;12.102;2022-10-31T14:02:47;18.27;;;10.07;;
36551;SDS011;22559;54.176;12.102;2022-10-31T14:05:35;18.30;;;10.03;;
36551;SDS011;22559;54.176;12.102;2022-10-31T14:08:04;15.93;;;9.20;;
36551;SDS011;22559;54.176;12.102;2022-10-31T14:10:46;15.63;;;8.97;;
36551;SDS011;22559;54.176;12.102;2022-10-31T14:13:15;15.20;;;9.43;;
36551;SDS011;22559;54.176;12.102;2022-10-31T14:15:54;17.47;;;9.27;;
36551;SDS011;22559;54.176;12.102;2022-10-31T14:18:37;15.87;;;9.80;;
36551;SDS011;22559;54.176;12.102;2022-10-31T14:26:52;15.17;;;9.63;;
36551;SDS011;22559;54.176;12.102;2022-10-31T14:29:29;15.57;;;9.27;;
36551;SDS011;22559;54.176;12.102;2022-10-31T14:34:53;17.90;;;10.03;;
36551;SDS011;22559;54.176;12.102;2022-10-31T14:48:51;14.43;;;9.03;;
36551;SDS011;22559;54.176;12.102;2022-10-31T14:51:02;16.13;;;9.30;;
36551;SDS011;22559;54.176;12.102;2022-10-31T14:53:51;17.60;;;9.57;;
36551;SDS011;22559;54.176;12.102;2022-10-31T14:56:20;17.77;;;9.97;;
36551;SDS011;22559;54.176;12.102;2022-10-31T14:58:49;16.30;;;9.03;;
36551;SDS011;22559;54.176;12.102;2022-10-31T15:01:23;17.53;;;9.43;;
36551;SDS011;22559;54.176;12.102;2022-10-31T15:04:03;16.60;;;10.20;;
36551;SDS011;22559;54.176;12.102;2022-10-31T15:06:40;16.53;;;9.73;;
36551;SDS011;22559;54.176;12.102;2022-10-31T15:09:25;16.93;;;9.83;;
36551;SDS011;22559;54.176;12.102;2022-10-31T15:11:52;14.90;;;8.97;;
36551;SDS011;22559;54.176;12.102;2022-10-31T15:14:22;15.83;;;9.47;;
36551;SDS011;22559;54.176;12.102;2022-10-31T15:16:59;18.13;;;8.63;;
36551;SDS011;22559;54.176;12.102;2022-10-31T15:19:29;14.40;;;9.10;;
36551;SDS011;22559;54.176;12.102;2022-10-31T15:21:57;14.57;;;8.80;;
36551;SDS011;22559;54.176;12.102;2022-10-31T15:24:24;18.17;;;9.20;;
36551;SDS011;22559;54.176;12.102;2022-10-31T15:26:56;16.17;;;9.23;;
36551;SDS011;22559;54.176;12.102;2022-10-31T15:29:24;18.10;;;10.27;;
36551;SDS011;22559;54.176;12.102;2022-10-31T15:32:01;21.37;;;10.03;;
36551;SDS011;22559;54.176;12.102;2022-10-31T15:34:43;17.77;;;10.17;;
36551;SDS011;22559;54.176;12.102;2022-10-31T15:37:10;17.57;;;9.37;;
36551;SDS011;22559;54.176;12.102;2022-10-31T15:39:40;20.33;;;10.30;;
36551;SDS011;22559;54.176;12.102;2022-10-31T15:42:20;19.43;;;10.40;;
36551;SDS011;22559;54.176;12.102;2022-10-31T15:45:35;17.93;;;10.03;;
36551;SDS011;22559;54.176;12.102;2022-10-31T15:47:45;15.73;;;8.83;;
36551;SDS011;22559;54.176;12.102;2022-10-31T15:50:23;17.03;;;9.37;;
36551;SDS011;22559;54.176;12.102;2022-10-31T15:53:02;17.73;;;10.20;;
36551;SDS011;22559;54.176;12.102;2022-10-31T15:55:31;11.77;;;7.00;;
36551;SDS011;22559;54.176;12.102;2022-10-31T15:58:02;15.03;;;8.33;;
36551;SDS011;22559;54.176;12.102;2022-10-31T16:00:39;16.90;;;9.90;;
36551;SDS011;22559;54.176;12.102;2022-10-31T16:03:28;13.50;;;7.87;;
36551;SDS011;22559;54.176;12.102;2022-10-31T16:05:57;14.27;;;9.07;;
36551;SDS011;22559;54.176;12.102;2022-10-31T16:08:25;15.93;;;9.23;;
36551;SDS011;22559;54.176;12.102;2022-10-31T16:11:01;19.13;;;10.10;;
36551;SDS011;22559;54.176;12.102;2022-10-31T16:13:32;14.97;;;9.40;;
36551;SDS011;22559;54.176;12.102;2022-10-31T16:16:00;25.23;;;11.53;;
36551;SDS011;22559;54.176;12.102;2022-10-31T16:18:28;18.30;;;10.50;;
36551;SDS011;22559;54.176;12.102;2022-10-31T16:21:00;19.73;;;10.30;;
36551;SDS011;22559;54.176;12.102;2022-10-31T16:23:26;21.13;;;10.30;;
36551;SDS011;22559;54.176;12.102;2022-10-31T16:25:52;16.83;;;10.70;;
36551;SDS011;22559;54.176;12.102;2022-10-31T16:28:19;22.13;;;10.63;;
36551;SDS011;22559;54.176;12.102;2022-10-31T16:30:55;18.00;;;9.97;;
36551;SDS011;22559;54.176;12.102;2022-10-31T16:35:52;20.13;;;10.83;;